| time (UTC) | temp C | wind direction | speed KPH | gust KPH | rain 1hr cm | rain 24hr cm | rain mn cm | humidity % | barometer mb |
| 20260505184310 | 12 | 327 | 6.4 | 12.9 | 0.00 | 0.00 | 0.00 | 35 | 1008.0 |
| 20260505183807 | 13 | 236 | 1.6 | 4.8 | 0.00 | 0.00 | 0.00 | 33 | 1008.0 |
| 20260505183304 | 13 | 250 | 6.4 | 12.9 | 0.00 | 0.00 | 0.00 | 36 | 1007.9 |
| 20260505182801 | 12 | 349 | 11.3 | 14.5 | 0.00 | 0.00 | 0.00 | 36 | 1007.9 |
| 20260505182257 | 12 | 297 | 11.3 | 12.9 | 0.00 | 0.00 | 0.00 | 34 | 1007.8 |
| 20260505181754 | 12 | 307 | 6.4 | 9.7 | 0.00 | 0.00 | 0.00 | 36 | 1007.6 |
| 20260505181251 | 12 | 250 | 4.8 | 4.8 | 0.00 | 0.00 | 0.00 | 38 | 1007.6 |
| 20260505180748 | 12 | 293 | 6.4 | 9.7 | 0.00 | 0.00 | 0.00 | 39 | 1007.6 |
| 20260505180244 | 12 | 237 | 4.8 | 11.3 | 0.00 | 0.00 | 0.00 | 35 | 1007.5 |
| 20260505175741 | 12 | 353 | 6.4 | 9.7 | 0.00 | 0.00 | 0.00 | 38 | 1007.4 |
| 20260505175237 | 12 | 328 | 16.1 | 16.1 | 0.00 | 0.00 | 0.00 | 37 | 1007.5 |
| 20260505174734 | 12 | 209 | 4.8 | 8.0 | 0.00 | 0.00 | 0.00 | 37 | 1007.7 |
| 20260505174231 | 11 | 323 | 12.9 | 14.5 | 0.00 | 0.00 | 0.00 | 37 | 1007.8 |
| 20260505173727 | 12 | 296 | 4.8 | 4.8 | 0.00 | 0.00 | 0.00 | 36 | 1007.6 |
| 20260505173224 | 12 | 356 | 9.7 | 11.3 | 0.00 | 0.00 | 0.00 | 37 | 1007.7 |
| 20260505172721 | 12 | 346 | 9.7 | 17.7 | 0.00 | 0.00 | 0.00 | 38 | 1007.7 |
| 20260505172218 | 12 | 318 | 9.7 | 16.1 | 0.00 | 0.00 | 0.00 | 37 | 1007.5 |
| 20260505171712 | 12 | 310 | 12.9 | 16.1 | 0.00 | 0.00 | 0.00 | 36 | 1007.8 |
| 20260505171210 | 11 | 324 | 8.0 | 12.9 | 0.00 | 0.00 | 0.00 | 39 | 1007.9 |
| 20260505170706 | 12 | 258 | 6.4 | 9.7 | 0.00 | 0.00 | 0.00 | 37 | 1007.7 |
| 20260505170203 | 12 | 0 | 9.7 | 16.1 | 0.00 | 0.00 | 0.00 | 40 | 1007.7 |
| 20260505165658 | 12 | 272 | 8.0 | 9.7 | 0.00 | 0.00 | 0.00 | 36 | 1007.9 |
| 20260505165154 | 11 | 323 | 4.8 | 9.7 | 0.00 | 0.00 | 0.00 | 40 | 1008.0 |
| 20260505164650 | 11 | 320 | 3.2 | 3.2 | 0.00 | 0.00 | 0.00 | 41 | 1008.1 |
| 20260505164147 | 11 | 2 | 11.3 | 14.5 | 0.00 | 0.00 | 0.00 | 40 | 1007.9 |
| 20260505163645 | 11 | 323 | 14.5 | 17.7 | 0.00 | 0.00 | 0.00 | 41 | 1007.6 |
| 20260505163143 | 11 | 301 | 8.0 | 11.3 | 0.00 | 0.00 | 0.00 | 41 | 1007.8 |
| 20260505162640 | 11 | 347 | 3.2 | 4.8 | 0.00 | 0.00 | 0.00 | 41 | 1007.9 |
| 20260505162138 | 11 | 323 | 4.8 | 8.0 | 0.00 | 0.00 | 0.00 | 43 | 1008.0 |
| 20260505161634 | 11 | 213 | 8.0 | 9.7 | 0.00 | 0.00 | 0.00 | 43 | 1008.1 |
| 20260505161132 | 11 | 256 | 4.8 | 8.0 | 0.00 | 0.00 | 0.00 | 42 | 1008.1 |
| 20260505160629 | 10 | 336 | 9.7 | 12.9 | 0.00 | 0.00 | 0.00 | 41 | 1008.1 |
| 20260505160127 | 10 | 304 | 8.0 | 11.3 | 0.00 | 0.00 | 0.00 | 40 | 1008.2 |
| 20260505153107 | 11 | 238 | 8.0 | 12.9 | 0.00 | 0.00 | 0.00 | 37 | 1008.0 |
| 20260505152603 | 10 | 331 | 3.2 | 4.8 | 0.00 | 0.00 | 0.00 | 40 | 1007.8 |
| 20260505152058 | 11 | 342 | 17.7 | 17.7 | 0.00 | 0.00 | 0.00 | 37 | 1007.8 |
| 20260505151554 | 10 | 251 | 4.8 | 8.0 | 0.00 | 0.00 | 0.00 | 35 | 1007.5 |
| 20260505151052 | 10 | 252 | 3.2 | 3.2 | 0.00 | 0.00 | 0.00 | 40 | 1007.6 |
| 20260505150548 | 10 | 243 | 8.0 | 12.9 | 0.00 | 0.00 | 0.00 | 39 | 1007.5 |
| 20260505140513 | 10 | 220 | 4.8 | 4.8 | 0.00 | 0.00 | 0.00 | 45 | 1008.1 |
| 20260505124926 | 8 | 274 | 3.2 | 3.2 | 0.00 | 0.00 | 0.00 | 52 | 1008.0 |
| 20260505124423 | 8 | 277 | 3.2 | 3.2 | 0.00 | 0.00 | 0.00 | 52 | 1007.8 |
| 20260505123919 | 7 | 287 | 3.2 | 8.0 | 0.00 | 0.00 | 0.00 | 50 | 1008.0 |
| 20260505123416 | 7 | 305 | 8.0 | 9.7 | 0.00 | 0.00 | 0.00 | 50 | 1008.0 |
| 20260505122912 | 7 | 313 | 4.8 | 4.8 | 0.00 | 0.00 | 0.00 | 51 | 1007.9 |
| 20260505122410 | 7 | 292 | 3.2 | 4.8 | 0.00 | 0.00 | 0.00 | 50 | 1007.9 |
| 20260505121906 | 7 | 233 | 1.6 | 1.6 | 0.00 | 0.00 | 0.00 | 50 | 1008.0 |
| 20260505121403 | 8 | 275 | 1.6 | 3.2 | 0.00 | 0.00 | 0.00 | 51 | 1007.7 |
| 20260505120859 | 7 | 267 | 4.8 | 8.0 | 0.00 | 0.00 | 0.00 | 51 | 1007.6 |
| 20260505120355 | 7 | 237 | 0.0 | 0.0 | 0.00 | 0.00 | 0.00 | 53 | 1007.7 |
| 20260505115854 | 7 | 251 | 4.8 | 4.8 | 0.00 | 0.00 | 0.00 | 55 | 1007.4 |
| 20260505115352 | 7 | 253 | 3.2 | 3.2 | 0.00 | 0.00 | 0.00 | 54 | 1007.6 |
| 20260505114849 | 7 | 223 | 0.0 | 1.6 | 0.00 | 0.00 | 0.00 | 55 | 1007.1 |
| 20260505114345 | 7 | 220 | 1.6 | 3.2 | 0.00 | 0.00 | 0.00 | 55 | 1006.7 |
| 20260505113842 | 7 | 235 | 0.0 | 0.0 | 0.00 | 0.00 | 0.00 | 56 | 1006.7 |
| 20260505113339 | 7 | 251 | 1.6 | 1.6 | 0.00 | 0.00 | 0.00 | 55 | 1006.5 |
| 20260505112834 | 7 | 244 | 0.0 | 0.0 | 0.00 | 0.00 | 0.00 | 54 | 1006.3 |
| 20260505112332 | 7 | 233 | 0.0 | 0.0 | 0.00 | 0.00 | 0.00 | 55 | 1006.0 |
| 20260505111827 | 7 | 254 | 0.0 | 1.6 | 0.00 | 0.00 | 0.00 | 56 | 1005.8 |
| 20260505111323 | 6 | 245 | 0.0 | 0.0 | 0.00 | 0.00 | 0.00 | 57 | 1005.7 |
| 20260505110819 | 6 | 236 | 0.0 | 0.0 | 0.00 | 0.00 | 0.00 | 57 | 1006.0 |
| 20260505110317 | 7 | 236 | 0.0 | 0.0 | 0.00 | 0.00 | 0.00 | 55 | 1005.9 |
| 20260505101751 | 7 | 297 | 1.6 | 1.6 | 0.00 | 0.00 | 0.00 | 54 | 1005.8 |
| 20260505101247 | 7 | 268 | 3.2 | 3.2 | 0.00 | 0.00 | 0.00 | 53 | 1005.9 |
| 20260505100743 | 7 | 273 | 1.6 | 3.2 | 0.00 | 0.00 | 0.00 | 53 | 1006.0 |
| 20260505100240 | 7 | 256 | 1.6 | 4.8 | 0.00 | 0.00 | 0.00 | 54 | 1005.8 |
| 20260505095735 | 7 | 267 | 3.2 | 4.8 | 0.00 | 0.00 | 0.00 | 54 | 1005.6 |
| 20260505095234 | 7 | 288 | 0.0 | 1.6 | 0.00 | 0.00 | 0.00 | 55 | 1005.6 |
| 20260505094729 | 7 | 272 | 4.8 | 8.0 | 0.00 | 0.00 | 0.00 | 55 | 1005.5 |
| 20260505094226 | 7 | 310 | 4.8 | 4.8 | 0.00 | 0.00 | 0.00 | 55 | 1005.5 |
| 20260505093722 | 7 | 258 | 1.6 | 3.2 | 0.00 | 0.00 | 0.00 | 54 | 1005.5 |
| 20260505093220 | 7 | 295 | 3.2 | 4.8 | 0.00 | 0.00 | 0.00 | 54 | 1005.4 |
| 20260505092716 | 8 | 285 | 3.2 | 3.2 | 0.00 | 0.00 | 0.00 | 53 | 1005.5 |
| 20260505092215 | 8 | 246 | 1.6 | 4.8 | 0.00 | 0.00 | 0.00 | 53 | 1005.6 |
| 20260505091712 | 8 | 309 | 1.6 | 3.2 | 0.00 | 0.00 | 0.00 | 52 | 1005.7 |
| 20260505091210 | 8 | 319 | 4.8 | 4.8 | 0.00 | 0.00 | 0.00 | 51 | 1005.6 |
| 20260505090707 | 7 | 285 | 1.6 | 1.6 | 0.00 | 0.00 | 0.00 | 52 | 1005.5 |
| 20260505090205 | 7 | 267 | 0.0 | 0.0 | 0.00 | 0.00 | 0.00 | 54 | 1005.7 |
| 20260505085702 | 8 | 321 | 1.6 | 3.2 | 0.00 | 0.00 | 0.00 | 53 | 1005.7 |
| 20260505085201 | 8 | 280 | 3.2 | 4.8 | 0.00 | 0.00 | 0.00 | 53 | 1005.7 |
| 20260505084658 | 8 | 284 | 0.0 | 1.6 | 0.00 | 0.00 | 0.00 | 53 | 1005.4 |
| 20260505084156 | 8 | 262 | 3.2 | 4.8 | 0.00 | 0.00 | 0.00 | 52 | 1005.3 |
| 20260505083653 | 8 | 259 | 3.2 | 4.8 | 0.00 | 0.00 | 0.00 | 51 | 1005.1 |
| 20260505083149 | 8 | 350 | 9.7 | 12.9 | 0.00 | 0.00 | 0.00 | 50 | 1004.9 |
| 20260505082645 | 8 | 357 | 8.0 | 9.7 | 0.00 | 0.00 | 0.00 | 50 | 1004.9 |
| 20260505082143 | 8 | 358 | 6.4 | 8.0 | 0.00 | 0.00 | 0.00 | 50 | 1004.8 |
| 20260505081638 | 8 | 322 | 8.0 | 11.3 | 0.00 | 0.00 | 0.00 | 50 | 1004.5 |
| 20260505081136 | 8 | 316 | 4.8 | 8.0 | 0.00 | 0.00 | 0.00 | 51 | 1004.5 |
| 20260505080633 | 8 | 290 | 4.8 | 4.8 | 0.00 | 0.00 | 0.00 | 51 | 1004.3 |
| 20260505080129 | 8 | 322 | 4.8 | 4.8 | 0.00 | 0.00 | 0.00 | 52 | 1004.5 |
| 20260505075625 | 8 | 342 | 4.8 | 4.8 | 0.00 | 0.00 | 0.00 | 53 | 1004.2 |
| 20260505075122 | 8 | 6 | 9.7 | 14.5 | 0.00 | 0.00 | 0.00 | 52 | 1004.0 |
| 20260505074619 | 8 | 303 | 8.0 | 9.7 | 0.00 | 0.00 | 0.00 | 52 | 1003.9 |
| 20260505074116 | 8 | 28 | 4.8 | 9.7 | 0.00 | 0.00 | 0.00 | 53 | 1003.7 |
| 20260505073614 | 8 | 315 | 3.2 | 4.8 | 0.00 | 0.00 | 0.00 | 53 | 1003.7 |
| 20260505073112 | 9 | 2 | 11.3 | 12.9 | 0.00 | 0.00 | 0.00 | 51 | 1003.3 |
| 20260505072607 | 9 | 21 | 8.0 | 11.3 | 0.00 | 0.00 | 0.00 | 51 | 1003.3 |
| 20260505072104 | 9 | 325 | 8.0 | 11.3 | 0.00 | 0.00 | 0.00 | 51 | 1003.3 |
| 20260505071559 | 9 | 287 | 1.6 | 3.2 | 0.00 | 0.00 | 0.00 | 51 | 1003.5 |
| 20260505071057 | 9 | 336 | 4.8 | 4.8 | 0.00 | 0.00 | 0.00 | 50 | 1003.7 |
| 20260505070554 | 9 | 256 | 3.2 | 3.2 | 0.00 | 0.00 | 0.00 | 50 | 1003.5 |
| 20260505070050 | 10 | 341 | 8.0 | 14.5 | 0.00 | 0.00 | 0.00 | 50 | 1003.4 |
| 20260505065546 | 10 | 339 | 8.0 | 11.3 | 0.00 | 0.00 | 0.00 | 49 | 1003.3 |
| 20260505065043 | 10 | 310 | 8.0 | 12.9 | 0.00 | 0.00 | 0.00 | 50 | 1003.1 |
| 20260505064540 | 10 | 314 | 9.7 | 14.5 | 0.00 | 0.00 | 0.00 | 48 | 1003.5 |
| 20260505064039 | 10 | 4 | 11.3 | 12.9 | 0.00 | 0.00 | 0.00 | 48 | 1003.2 |
| 20260505063536 | 10 | 325 | 8.0 | 9.7 | 0.00 | 0.00 | 0.00 | 49 | 1002.9 |
| 20260505063031 | 10 | 333 | 16.1 | 17.7 | 0.00 | 0.00 | 0.00 | 47 | 1003.1 |
| 20260505062528 | 10 | 309 | 14.5 | 16.1 | 0.00 | 0.00 | 0.00 | 48 | 1003.0 |
| 20260505062026 | 10 | 315 | 12.9 | 20.9 | 0.00 | 0.00 | 0.00 | 47 | 1002.8 |
| 20260505061523 | 10 | 307 | 8.0 | 14.5 | 0.00 | 0.00 | 0.00 | 49 | 1002.7 |
| 20260505061021 | 11 | 287 | 6.4 | 9.7 | 0.00 | 0.00 | 0.00 | 49 | 1002.7 |
| 20260505060518 | 11 | 80 | 11.3 | 14.5 | 0.00 | 0.00 | 0.00 | 49 | 1002.7 |
| 20260505060014 | 11 | 359 | 20.9 | 25.7 | 0.00 | 0.00 | 0.00 | 48 | 1002.9 |
| 20260505055510 | 11 | 338 | 9.7 | 11.3 | 0.00 | 0.00 | 0.00 | 49 | 1002.6 |
| 20260505055006 | 11 | 347 | 14.5 | 17.7 | 0.00 | 0.00 | 0.00 | 47 | 1002.5 |
| 20260505054504 | 11 | 351 | 11.3 | 16.1 | 0.00 | 0.00 | 0.00 | 48 | 1002.5 |
| 20260505054002 | 11 | 355 | 22.5 | 25.7 | 0.00 | 0.00 | 0.00 | 48 | 1002.4 |
| 20260505053459 | 11 | 329 | 17.7 | 25.7 | 0.00 | 0.00 | 0.00 | 49 | 1002.4 |
| 20260505052955 | 11 | 336 | 11.3 | 14.5 | 0.00 | 0.00 | 0.00 | 50 | 1002.4 |
| 20260505052453 | 12 | 316 | 8.0 | 12.9 | 0.00 | 0.00 | 0.00 | 50 | 1002.2 |
| 20260505051949 | 12 | 14 | 17.7 | 22.5 | 0.00 | 0.00 | 0.00 | 49 | 1002.4 |
| 20260505051446 | 12 | 11 | 9.7 | 12.9 | 0.00 | 0.00 | 0.00 | 49 | 1002.1 |
| 20260505050945 | 12 | 333 | 11.3 | 14.5 | 0.00 | 0.00 | 0.00 | 50 | 1002.1 |
| 20260505050443 | 12 | 343 | 20.9 | 24.1 | 0.00 | 0.00 | 0.00 | 49 | 1002.0 |
| 20260505041411 | 13 | 254 | 4.8 | 8.0 | 0.00 | 0.00 | 0.00 | 48 | 1001.3 |
| 20260505040908 | 13 | 269 | 3.2 | 4.8 | 0.00 | 0.00 | 0.00 | 49 | 1001.3 |
| 20260505040405 | 13 | 274 | 1.6 | 1.6 | 0.00 | 0.00 | 0.00 | 49 | 1001.1 |
| 20260505035902 | 13 | 249 | 0.0 | 1.6 | 0.00 | 0.00 | 0.00 | 49 | 1001.2 |
| 20260505035357 | 13 | 275 | 6.4 | 9.7 | 0.00 | 0.00 | 0.00 | 48 | 1001.6 |
| 20260505034855 | 13 | 242 | 0.0 | 1.6 | 0.00 | 0.00 | 0.00 | 47 | 1001.2 |
| 20260505034351 | 13 | 247 | 0.0 | 0.0 | 0.00 | 0.00 | 0.00 | 46 | 1001.0 |
| 20260505033848 | 13 | 293 | 1.6 | 3.2 | 0.00 | 0.00 | 0.00 | 46 | 1001.0 |
| 20260505033345 | 13 | 245 | 0.0 | 0.0 | 0.00 | 0.00 | 0.00 | 46 | 1001.1 |
| 20260505032843 | 13 | 282 | 1.6 | 1.6 | 0.00 | 0.00 | 0.00 | 44 | 1001.0 |
| 20260505032340 | 13 | 258 | 0.0 | 0.0 | 0.00 | 0.00 | 0.00 | 44 | 1001.0 |
| 20260505031837 | 14 | 240 | 0.0 | 0.0 | 0.00 | 0.00 | 0.00 | 43 | 1001.2 |
| 20260505031333 | 14 | 262 | 1.6 | 1.6 | 0.00 | 0.00 | 0.00 | 43 | 1000.9 |
| 20260505030831 | 15 | 265 | 3.2 | 3.2 | 0.00 | 0.00 | 0.00 | 42 | 1000.8 |
| 20260505030327 | 15 | 299 | 8.0 | 9.7 | 0.00 | 0.00 | 0.00 | 40 | 1000.7 |
| 20260505025822 | 15 | 282 | 4.8 | 4.8 | 0.00 | 0.00 | 0.00 | 39 | 1000.6 |
| 20260505025320 | 15 | 330 | 4.8 | 8.0 | 0.00 | 0.00 | 0.00 | 38 | 1000.6 |
| 20260505024818 | 15 | 265 | 8.0 | 12.9 | 0.00 | 0.00 | 0.00 | 38 | 1000.4 |
| 20260505024316 | 15 | 257 | 4.8 | 4.8 | 0.00 | 0.00 | 0.00 | 38 | 1000.2 |
| 20260505023813 | 15 | 206 | 8.0 | 11.3 | 0.00 | 0.00 | 0.00 | 37 | 1000.0 |
| 20260505023309 | 15 | 281 | 3.2 | 8.0 | 0.00 | 0.00 | 0.00 | 37 | 999.7 |
| 20260505022807 | 15 | 312 | 6.4 | 11.3 | 0.00 | 0.00 | 0.00 | 37 | 999.6 |
| 20260505022304 | 15 | 69 | 4.8 | 4.8 | 0.00 | 0.00 | 0.00 | 38 | 999.5 |
| 20260505021801 | 15 | 263 | 4.8 | 8.0 | 0.00 | 0.00 | 0.00 | 37 | 999.2 |
| 20260505021257 | 15 | 326 | 4.8 | 9.7 | 0.00 | 0.00 | 0.00 | 37 | 999.2 |
| 20260505020753 | 15 | 281 | 1.6 | 3.2 | 0.00 | 0.00 | 0.00 | 38 | 998.6 |
| 20260505020248 | 16 | 314 | 4.8 | 4.8 | 0.00 | 0.00 | 0.00 | 38 | 998.5 |
| 20260505015746 | 16 | 240 | 0.0 | 0.0 | 0.00 | 0.00 | 0.00 | 39 | 998.3 |
| 20260505015243 | 16 | 264 | 4.8 | 8.0 | 0.00 | 0.00 | 0.00 | 38 | 998.5 |
| 20260505014740 | 16 | 355 | 9.7 | 12.9 | 0.00 | 0.00 | 0.00 | 38 | 998.4 |
| 20260505014237 | 16 | 256 | 0.0 | 1.6 | 0.00 | 0.00 | 0.00 | 40 | 998.4 |
| 20260505013734 | 16 | 238 | 3.2 | 4.8 | 0.00 | 0.00 | 0.00 | 41 | 998.3 |
| 20260505013231 | 16 | 253 | 6.4 | 9.7 | 0.00 | 0.00 | 0.00 | 41 | 998.4 |
| 20260505012729 | 16 | 269 | 4.8 | 8.0 | 0.00 | 0.00 | 0.00 | 41 | 998.4 |
| 20260505012226 | 17 | 287 | 1.6 | 4.8 | 0.00 | 0.00 | 0.00 | 40 | 998.2 |
| 20260505011722 | 17 | 295 | 8.0 | 14.5 | 0.00 | 0.00 | 0.00 | 39 | 998.3 |
| 20260505011219 | 17 | 262 | 8.0 | 12.9 | 0.00 | 0.00 | 0.00 | 39 | 998.3 |
| 20260505010714 | 17 | 249 | 4.8 | 4.8 | 0.00 | 0.00 | 0.00 | 39 | 998.2 |
| 20260505010212 | 17 | 275 | 9.7 | 14.5 | 0.00 | 0.00 | 0.00 | 39 | 998.1 |
| 20260505005708 | 17 | 312 | 6.4 | 9.7 | 0.00 | 0.00 | 0.00 | 40 | 998.1 |
| 20260505005205 | 17 | 279 | 4.8 | 8.0 | 0.00 | 0.00 | 0.00 | 39 | 997.8 |
| 20260505004702 | 18 | 324 | 8.0 | 12.9 | 0.00 | 0.00 | 0.00 | 39 | 997.6 |
| 20260505004158 | 18 | 314 | 8.0 | 11.3 | 0.00 | 0.00 | 0.00 | 38 | 997.2 |
| 20260505003656 | 18 | 276 | 19.3 | 24.1 | 0.00 | 0.00 | 0.00 | 39 | 997.0 |
| 20260505003153 | 18 | 194 | 4.8 | 8.0 | 0.00 | 0.00 | 0.00 | 39 | 996.9 |
| 20260505002649 | 19 | 309 | 14.5 | 17.7 | 0.00 | 0.00 | 0.00 | 39 | 996.9 |
| 20260505002148 | 20 | 285 | 6.4 | 11.3 | 0.00 | 0.00 | 0.00 | 39 | 996.8 |
| 20260505001644 | 20 | 306 | 9.7 | 12.9 | 0.00 | 0.00 | 0.00 | 39 | 996.9 |
| 20260505001142 | 20 | 333 | 4.8 | 4.8 | 0.00 | 0.00 | 0.00 | 36 | 996.5 |
| 20260505000639 | 20 | 285 | 6.4 | 8.0 | 0.00 | 0.00 | 0.00 | 36 | 996.5 |
| 20260505000137 | 21 | 246 | 1.6 | 3.2 | 0.00 | 0.00 | 0.00 | 36 | 996.6 |
| 20260504235632 | 21 | 236 | 6.4 | 11.3 | 0.00 | 0.00 | 0.00 | 37 | 996.4 |
| 20260504235129 | 21 | 260 | 6.4 | 11.3 | 0.00 | 0.00 | 0.00 | 37 | 996.5 |
| 20260504234626 | 21 | 338 | 12.9 | 17.7 | 0.00 | 0.00 | 0.00 | 37 | 996.3 |
| 20260504234124 | 21 | 285 | 8.0 | 11.3 | 0.00 | 0.00 | 0.00 | 38 | 996.2 |
| 20260504233619 | 21 | 300 | 8.0 | 12.9 | 0.00 | 0.00 | 0.00 | 40 | 996.0 |
| 20260504233115 | 22 | 225 | 1.6 | 4.8 | 0.00 | 0.00 | 0.00 | 40 | 996.0 |
| 20260504232614 | 22 | 321 | 17.7 | 22.5 | 0.00 | 0.00 | 0.00 | 39 | 995.9 |
| 20260504232110 | 22 | 266 | 6.4 | 8.0 | 0.00 | 0.00 | 0.00 | 41 | 995.8 |
| 20260504231607 | 23 | 282 | 0.0 | 1.6 | 0.00 | 0.00 | 0.00 | 41 | 995.9 |
| 20260504231103 | 23 | 278 | 6.4 | 9.7 | 0.00 | 0.00 | 0.00 | 38 | 995.8 |
| 20260504230558 | 23 | 269 | 4.8 | 8.0 | 0.00 | 0.00 | 0.00 | 38 | 995.7 |
| 20260504230059 | 23 | 342 | 14.5 | 16.1 | 0.00 | 0.00 | 0.00 | 37 | 995.5 |
| 20260504225555 | 23 | 281 | 11.3 | 14.5 | 0.00 | 0.00 | 0.00 | 38 | 995.6 |
| 20260504225052 | 24 | 251 | 4.8 | 8.0 | 0.00 | 0.00 | 0.00 | 38 | 995.6 |
| 20260504224548 | 24 | 264 | 8.0 | 9.7 | 0.00 | 0.00 | 0.00 | 39 | 995.3 |
| 20260504224046 | 25 | 347 | 14.5 | 24.1 | 0.00 | 0.00 | 0.00 | 38 | 995.3 |
| 20260504223543 | 25 | 295 | 8.0 | 11.3 | 0.00 | 0.00 | 0.00 | 39 | 995.3 |
| 20260504223038 | 25 | 282 | 11.3 | 14.5 | 0.00 | 0.00 | 0.00 | 36 | 995.3 |
| 20260504222535 | 25 | 279 | 4.8 | 8.0 | 0.00 | 0.00 | 0.00 | 33 | 995.2 |
| 20260504222033 | 25 | 202 | 8.0 | 12.9 | 0.00 | 0.00 | 0.00 | 33 | 995.0 |
| 20260504221530 | 25 | 248 | 4.8 | 8.0 | 0.00 | 0.00 | 0.00 | 32 | 995.0 |
| 20260504221027 | 25 | 206 | 6.4 | 9.7 | 0.00 | 0.00 | 0.00 | 32 | 995.1 |
| 20260504220523 | 26 | 209 | 6.4 | 11.3 | 0.00 | 0.00 | 0.00 | 32 | 995.0 |
| 20260504220021 | 25 | 279 | 1.6 | 8.0 | 0.00 | 0.00 | 0.00 | 32 | 995.0 |
| 20260504215517 | 26 | 269 | 8.0 | 12.9 | 0.00 | 0.00 | 0.00 | 31 | 995.0 |
| 20260504215014 | 26 | 258 | 6.4 | 11.3 | 0.00 | 0.00 | 0.00 | 32 | 995.0 |
| 20260504214510 | 26 | 237 | 6.4 | 9.7 | 0.00 | 0.00 | 0.00 | 33 | 995.0 |
| 20260504214006 | 25 | 197 | 1.6 | 3.2 | 0.00 | 0.00 | 0.00 | 32 | 995.0 |
| 20260504213503 | 26 | 229 | 4.8 | 9.7 | 0.00 | 0.00 | 0.00 | 31 | 995.1 |
| 20260504213001 | 26 | 284 | 14.5 | 20.9 | 0.00 | 0.00 | 0.00 | 30 | 995.0 |
| 20260504212456 | 25 | 256 | 11.3 | 14.5 | 0.00 | 0.00 | 0.00 | 32 | 995.4 |
| 20260504211954 | 26 | 208 | 6.4 | 9.7 | 0.00 | 0.00 | 0.00 | 32 | 995.2 |
| 20260504211450 | 26 | 154 | 6.4 | 11.3 | 0.00 | 0.00 | 0.00 | 33 | 995.4 |
| 20260504210948 | 25 | 208 | 12.9 | 17.7 | 0.00 | 0.00 | 0.00 | 32 | 995.4 |
| 20260504210444 | 25 | 260 | 6.4 | 9.7 | 0.00 | 0.00 | 0.00 | 33 | 995.5 |
| 20260504205941 | 25 | 260 | 14.5 | 20.9 | 0.00 | 0.00 | 0.00 | 32 | 995.4 |
| 20260504205439 | 25 | 242 | 17.7 | 25.7 | 0.00 | 0.00 | 0.00 | 31 | 995.2 |
| 20260504204937 | 25 | 244 | 11.3 | 14.5 | 0.00 | 0.00 | 0.00 | 32 | 995.7 |
| 20260504204435 | 26 | 292 | 8.0 | 14.5 | 0.00 | 0.00 | 0.00 | 31 | 995.4 |
| 20260504203934 | 26 | 207 | 11.3 | 16.1 | 0.00 | 0.00 | 0.00 | 31 | 995.6 |
| 20260504203431 | 25 | 246 | 6.4 | 11.3 | 0.00 | 0.00 | 0.00 | 32 | 995.6 |
| 20260504202927 | 26 | 232 | 6.4 | 9.7 | 0.00 | 0.00 | 0.00 | 32 | 995.6 |
| 20260504202424 | 25 | 257 | 8.0 | 11.3 | 0.00 | 0.00 | 0.00 | 32 | 995.7 |
| 20260504201920 | 25 | 265 | 8.0 | 16.1 | 0.00 | 0.00 | 0.00 | 32 | 995.6 |
| 20260504201418 | 25 | 260 | 4.8 | 9.7 | 0.00 | 0.00 | 0.00 | 34 | 995.8 |
| 20260504200915 | 25 | 205 | 8.0 | 11.3 | 0.00 | 0.00 | 0.00 | 33 | 995.6 |
| 20260504200412 | 25 | 272 | 16.1 | 24.1 | 0.00 | 0.00 | 0.00 | 33 | 995.8 |
| 20260504195908 | 25 | 268 | 9.7 | 14.5 | 0.00 | 0.00 | 0.00 | 33 | 996.0 |
| 20260504195404 | 25 | 263 | 12.9 | 17.7 | 0.00 | 0.00 | 0.00 | 33 | 995.9 |
| 20260504194901 | 25 | 235 | 22.5 | 27.4 | 0.00 | 0.00 | 0.00 | 34 | 996.3 |
| 20260504194357 | 26 | 271 | 3.2 | 8.0 | 0.00 | 0.00 | 0.00 | 34 | 996.4 |
| 20260504193853 | 26 | 186 | 8.0 | 11.3 | 0.00 | 0.00 | 0.00 | 32 | 995.9 |
| 20260504193350 | 26 | 239 | 4.8 | 4.8 | 0.00 | 0.00 | 0.00 | 33 | 996.0 |
| 20260504192849 | 25 | 211 | 0.0 | 1.6 | 0.00 | 0.00 | 0.00 | 34 | 996.3 |
| 20260504192346 | 25 | 240 | 6.4 | 9.7 | 0.00 | 0.00 | 0.00 | 33 | 996.4 |
| 20260504191844 | 25 | 248 | 9.7 | 12.9 | 0.00 | 0.00 | 0.00 | 33 | 996.3 |
| 20260504191342 | 25 | 216 | 12.9 | 22.5 | 0.00 | 0.00 | 0.00 | 33 | 996.7 |
| 20260504190838 | 25 | 256 | 9.7 | 11.3 | 0.00 | 0.00 | 0.00 | 33 | 996.6 |
| 20260504190333 | 25 | 274 | 8.0 | 11.3 | 0.00 | 0.00 | 0.00 | 34 | 996.5 |
| 20260504185830 | 25 | 298 | 20.9 | 32.2 | 0.00 | 0.00 | 0.00 | 33 | 996.7 |
| 20260504185327 | 25 | 221 | 11.3 | 12.9 | 0.00 | 0.00 | 0.00 | 33 | 996.6 |
| 20260504184823 | 25 | 196 | 12.9 | 22.5 | 0.00 | 0.00 | 0.00 | 33 | 996.7 |